createdAt,value
2019-03-31T00:00:10.621Z,2.80
2019-03-31T00:02:39.431Z,2.80
2019-03-31T00:05:06.681Z,2.80
2019-03-31T00:07:33.899Z,2.80
2019-03-31T00:10:00.987Z,2.80
2019-03-31T00:12:27.999Z,2.80
2019-03-31T00:14:54.996Z,2.80
2019-03-31T00:17:23.216Z,2.90
2019-03-31T00:19:50.166Z,2.80
2019-03-31T00:22:17.224Z,2.80
2019-03-31T00:24:44.269Z,2.80
2019-03-31T00:27:11.322Z,2.70
2019-03-31T00:29:38.324Z,2.60
2019-03-31T00:32:05.377Z,4.10
2019-03-31T00:34:32.512Z,2.50
2019-03-31T00:36:59.649Z,2.50
2019-03-31T00:39:26.730Z,2.50
2019-03-31T00:41:53.773Z,2.50
2019-03-31T00:44:20.797Z,2.60
2019-03-31T00:46:47.900Z,2.60
2019-03-31T00:49:14.983Z,2.60
2019-03-31T00:51:42.009Z,2.60
2019-03-31T00:54:09.065Z,2.50
2019-03-31T00:56:36.032Z,2.50
2019-03-31T00:59:03.117Z,2.40
2019-03-31T01:01:38.024Z,2.30
2019-03-31T01:04:07.248Z,2.30
2019-03-31T01:06:35.057Z,2.20
2019-03-31T01:09:04.617Z,2.20
2019-03-31T01:11:33.472Z,2.20
2019-03-31T01:14:00.670Z,2.10
2019-03-31T01:16:47.370Z,2.10
2019-03-31T01:19:14.909Z,1.60
2019-03-31T01:21:41.933Z,3.90
2019-03-31T01:24:11.590Z,1.90
2019-03-31T01:26:38.589Z,1.80
2019-03-31T01:29:06.735Z,1.70
2019-03-31T01:31:33.911Z,1.60
2019-03-31T01:34:01.067Z,1.50
2019-03-31T01:36:28.136Z,1.50
2019-03-31T01:38:55.238Z,1.40
2019-03-31T01:41:22.226Z,1.40
2019-03-31T01:43:49.252Z,1.30
2019-03-31T01:46:17.085Z,1.20
2019-03-31T01:48:44.276Z,1.20
2019-03-31T01:51:11.518Z,0.90
2019-03-31T01:53:38.546Z,0.90
2019-03-31T01:56:05.521Z,0.80
2019-03-31T01:58:32.740Z,0.70
2019-03-31T02:01:01.800Z,0.60
2019-03-31T02:03:28.838Z,0.50
2019-03-31T02:05:55.964Z,0.50
2019-03-31T02:08:22.958Z,0.40
2019-03-31T02:10:50.134Z,0.30
2019-03-31T02:13:17.048Z,0.10
2019-03-31T02:15:44.074Z,0.00
2019-03-31T02:18:12.180Z,0.00
2019-03-31T02:20:39.204Z,0.00
2019-03-31T02:23:07.074Z,0.10
2019-03-31T02:25:34.179Z,0.20
2019-03-31T02:28:01.338Z,0.30
2019-03-31T02:30:28.381Z,0.30
2019-03-31T02:32:55.375Z,0.30
2019-03-31T02:35:22.488Z,0.30
2019-03-31T02:37:50.222Z,0.30
2019-03-31T02:40:17.343Z,0.20
2019-03-31T02:42:51.974Z,0.20
2019-03-31T02:45:19.088Z,0.20
2019-03-31T02:47:46.097Z,0.30
2019-03-31T02:50:16.761Z,0.30
2019-03-31T02:52:43.927Z,0.30
2019-03-31T02:55:11.537Z,0.30
2019-03-31T02:57:39.629Z,0.30
2019-03-31T03:00:06.876Z,0.30
2019-03-31T03:02:42.057Z,0.20
2019-03-31T03:05:17.947Z,0.20
2019-03-31T03:07:36.126Z,0.10
2019-03-31T03:10:03.789Z,0.10
2019-03-31T03:12:32.694Z,0.10
2019-03-31T03:15:02.288Z,0.20
2019-03-31T03:17:29.303Z,0.20
2019-03-31T03:19:56.367Z,0.20
2019-03-31T03:22:23.460Z,0.10
2019-03-31T03:24:50.497Z,0.20
2019-03-31T03:27:17.543Z,0.30
2019-03-31T03:29:44.503Z,0.40
2019-03-31T03:32:11.609Z,0.60
2019-03-31T03:34:38.597Z,0.60
2019-03-31T03:37:05.700Z,0.70
2019-03-31T03:39:32.711Z,0.80
2019-03-31T03:41:59.867Z,0.80
2019-03-31T03:44:26.842Z,0.90
2019-03-31T03:46:53.898Z,1.00
2019-03-31T03:49:20.942Z,1.00
2019-03-31T03:51:48.010Z,1.10
2019-03-31T03:54:14.983Z,1.10
2019-03-31T03:56:42.019Z,1.00
2019-03-31T03:59:09.046Z,1.00
2019-03-31T04:01:36.134Z,1.00
2019-03-31T04:04:03.126Z,1.00
2019-03-31T04:06:30.143Z,1.10
2019-03-31T04:08:57.193Z,1.20
2019-03-31T04:11:24.314Z,1.20
2019-03-31T04:13:52.154Z,1.20
2019-03-31T04:16:19.271Z,1.20
2019-03-31T04:18:46.322Z,1.00
2019-03-31T04:21:13.339Z,0.80
2019-03-31T04:23:40.486Z,0.80
2019-03-31T04:26:08.515Z,0.90
2019-03-31T04:28:35.536Z,0.80
2019-03-31T04:31:02.550Z,0.90
2019-03-31T04:33:48.429Z,0.90
2019-03-31T04:35:58.529Z,0.90
2019-03-31T04:38:25.590Z,1.00
2019-03-31T04:40:52.661Z,1.00
2019-03-31T04:43:20.540Z,1.10
2019-03-31T04:45:47.529Z,1.20
2019-03-31T04:48:14.577Z,1.30
2019-03-31T04:50:41.598Z,1.40
2019-03-31T04:53:08.683Z,1.40
2019-03-31T04:55:35.885Z,1.40
2019-03-31T04:58:05.305Z,1.40
2019-03-31T05:00:32.329Z,1.40
2019-03-31T05:03:00.218Z,1.40
2019-03-31T05:05:27.261Z,1.40
2019-03-31T05:07:54.324Z,1.40
2019-03-31T05:10:21.348Z,1.50
2019-03-31T05:12:48.405Z,1.40
2019-03-31T05:15:15.440Z,1.40
2019-03-31T05:17:47.957Z,1.40
2019-03-31T05:20:14.984Z,1.40
2019-03-31T05:22:42.833Z,1.40
2019-03-31T05:25:09.855Z,1.50
2019-03-31T05:27:38.064Z,1.50
2019-03-31T05:30:05.815Z,1.50
2019-03-31T05:32:32.991Z,1.40
2019-03-31T05:35:00.238Z,1.40
2019-03-31T05:37:27.469Z,1.40
2019-03-31T05:39:54.685Z,1.40
2019-03-31T05:42:21.937Z,1.30
2019-03-31T05:44:49.123Z,1.20
2019-03-31T05:47:16.286Z,1.20
2019-03-31T05:49:43.357Z,1.20
2019-03-31T05:52:10.406Z,1.20
2019-03-31T05:54:37.433Z,1.10
2019-03-31T05:57:04.513Z,1.00
2019-03-31T05:59:32.688Z,1.00
2019-03-31T06:01:59.727Z,0.90
2019-03-31T06:04:32.958Z,1.00
2019-03-31T06:06:55.581Z,1.10
2019-03-31T06:09:22.625Z,1.10
2019-03-31T06:11:53.113Z,1.20
2019-03-31T06:14:18.500Z,1.20
2019-03-31T06:16:45.533Z,1.20
2019-03-31T06:19:14.857Z,1.20
2019-03-31T06:21:41.894Z,1.30
2019-03-31T06:24:08.933Z,1.40
2019-03-31T06:26:36.006Z,1.40
2019-03-31T06:29:03.054Z,1.50
2019-03-31T06:31:30.065Z,1.90
2019-03-31T06:33:57.061Z,2.00
2019-03-31T06:36:24.161Z,2.10
2019-03-31T06:38:51.125Z,3.70
2019-03-31T06:41:18.096Z,3.50
2019-03-31T06:43:45.103Z,4.80
2019-03-31T06:46:12.233Z,5.60
2019-03-31T06:48:39.233Z,5.80
2019-03-31T06:51:06.237Z,6.10
2019-03-31T06:53:33.272Z,6.30
2019-03-31T06:56:00.255Z,6.70
2019-03-31T06:58:27.289Z,7.30
2019-03-31T07:00:54.387Z,7.40
2019-03-31T07:03:21.385Z,7.40
2019-03-31T07:05:48.428Z,7.80
2019-03-31T07:08:15.455Z,7.90
2019-03-31T07:10:42.437Z,8.20
2019-03-31T07:13:09.509Z,8.10
2019-03-31T07:15:36.548Z,8.40
2019-03-31T07:18:03.546Z,8.80
2019-03-31T07:20:30.677Z,8.30
2019-03-31T07:22:57.733Z,8.70
2019-03-31T07:25:24.876Z,7.50
2019-03-31T07:27:51.961Z,6.00
2019-03-31T07:30:19.870Z,6.10
2019-03-31T07:32:46.906Z,5.90
2019-03-31T07:35:18.811Z,6.20
2019-03-31T07:37:47.554Z,7.10
2019-03-31T07:40:15.174Z,7.00
2019-03-31T07:42:42.729Z,7.50
2019-03-31T07:45:10.974Z,7.80
2019-03-31T07:47:38.226Z,8.40
2019-03-31T07:50:07.638Z,9.00
2019-03-31T07:52:35.021Z,9.40
2019-03-31T07:55:02.319Z,9.20
2019-03-31T07:57:29.347Z,9.10
2019-03-31T07:59:57.320Z,9.40
2019-03-31T08:02:24.789Z,9.60
2019-03-31T08:04:51.866Z,10.20
2019-03-31T08:07:18.949Z,10.20
2019-03-31T08:09:45.994Z,10.60
2019-03-31T08:12:12.965Z,10.90
2019-03-31T08:14:39.987Z,10.80
2019-03-31T08:17:07.569Z,10.80
2019-03-31T08:19:34.619Z,10.50
2019-03-31T08:22:01.791Z,10.60
2019-03-31T08:24:32.176Z,10.90
2019-03-31T08:26:59.287Z,10.10
2019-03-31T08:29:26.388Z,11.20
2019-03-31T08:31:53.566Z,9.30
2019-03-31T08:34:20.663Z,9.80
2019-03-31T08:36:47.830Z,10.70
2019-03-31T08:39:15.481Z,12.00
2019-03-31T08:41:42.634Z,12.30
2019-03-31T08:44:09.724Z,12.00
2019-03-31T08:46:39.223Z,12.30
2019-03-31T08:49:06.389Z,11.90
2019-03-31T08:51:33.508Z,10.20
2019-03-31T08:54:00.649Z,9.80
2019-03-31T08:56:27.924Z,10.30
2019-03-31T08:58:55.075Z,10.50
2019-03-31T09:01:22.740Z,11.80
2019-03-31T09:03:49.932Z,11.60
2019-03-31T09:06:17.068Z,10.20
2019-03-31T09:08:44.117Z,9.90
2019-03-31T09:11:11.216Z,9.90
2019-03-31T09:13:39.170Z,10.60
2019-03-31T09:16:06.341Z,12.00
2019-03-31T09:18:33.526Z,13.20
2019-03-31T09:21:00.655Z,13.20
2019-03-31T09:23:27.809Z,12.10
2019-03-31T09:25:54.949Z,12.30
2019-03-31T09:28:34.985Z,13.20
2019-03-31T09:31:02.189Z,11.90
2019-03-31T09:33:29.314Z,12.80
2019-03-31T09:35:56.333Z,12.60
2019-03-31T09:38:23.438Z,12.80
2019-03-31T09:40:52.313Z,13.20
2019-03-31T09:43:19.918Z,13.30
2019-03-31T09:45:54.062Z,13.70
2019-03-31T09:48:21.152Z,13.10
2019-03-31T09:50:48.125Z,12.50
2019-03-31T09:53:16.342Z,11.70
2019-03-31T09:55:43.329Z,12.00
2019-03-31T09:58:10.434Z,12.30
2019-03-31T10:00:53.249Z,12.60
2019-03-31T10:03:20.550Z,13.10
2019-03-31T10:05:48.446Z,14.30
2019-03-31T10:08:21.550Z,14.60
2019-03-31T10:10:47.177Z,13.70
2019-03-31T10:13:15.209Z,12.30
2019-03-31T10:15:42.466Z,11.60
2019-03-31T10:18:09.627Z,12.30
2019-03-31T10:20:36.718Z,13.30
2019-03-31T10:23:03.956Z,12.70
2019-03-31T10:25:31.239Z,11.30
2019-03-31T10:27:58.208Z,10.00
2019-03-31T10:30:30.853Z,9.80
2019-03-31T10:32:57.866Z,9.10
2019-03-31T10:35:24.861Z,8.50
2019-03-31T10:37:51.954Z,8.30
2019-03-31T10:40:19.097Z,8.20
2019-03-31T10:42:46.167Z,8.20
2019-03-31T10:45:13.184Z,8.30
2019-03-31T10:47:40.197Z,8.20
2019-03-31T10:50:07.215Z,7.80
2019-03-31T10:52:34.352Z,7.90
2019-03-31T10:55:01.324Z,7.80
2019-03-31T10:57:28.401Z,7.70
2019-03-31T10:59:56.222Z,7.30
2019-03-31T11:02:23.450Z,7.00
2019-03-31T11:04:50.469Z,6.70
2019-03-31T11:07:18.525Z,6.40
2019-03-31T11:09:45.558Z,6.30
2019-03-31T11:12:12.553Z,6.30
2019-03-31T11:14:39.568Z,6.30
2019-03-31T11:17:06.910Z,6.30
2019-03-31T11:19:33.912Z,6.30
2019-03-31T11:22:02.745Z,6.40
2019-03-31T11:24:29.781Z,6.60
2019-03-31T11:26:56.870Z,6.50
2019-03-31T11:29:24.017Z,6.40
2019-03-31T11:31:51.205Z,6.30
2019-03-31T11:34:19.644Z,6.20
2019-03-31T11:36:47.041Z,4.70
2019-03-31T11:39:16.291Z,6.20
2019-03-31T11:41:43.193Z,6.00
2019-03-31T11:44:11.340Z,5.90
2019-03-31T11:46:38.477Z,6.00
2019-03-31T11:49:05.644Z,6.00
2019-03-31T11:51:32.757Z,6.10
2019-03-31T11:53:59.861Z,6.50
2019-03-31T11:56:27.033Z,7.00
2019-03-31T11:58:54.014Z,7.00
2019-03-31T12:01:21.077Z,7.00
2019-03-31T12:03:48.060Z,7.20
2019-03-31T12:06:15.249Z,7.50
2019-03-31T12:08:42.240Z,7.80
2019-03-31T12:11:09.413Z,7.70
2019-03-31T12:13:36.385Z,7.00
2019-03-31T12:16:03.517Z,6.40
2019-03-31T12:18:30.488Z,6.30
2019-03-31T12:20:57.598Z,6.70
2019-03-31T12:23:24.571Z,6.80
2019-03-31T12:25:51.665Z,6.60
2019-03-31T12:28:18.640Z,5.90
2019-03-31T12:30:45.777Z,5.80
2019-03-31T12:33:12.910Z,5.60
2019-03-31T12:35:39.985Z,5.60
2019-03-31T12:38:07.178Z,6.20
2019-03-31T12:40:35.558Z,6.30
2019-03-31T12:43:03.525Z,6.00
2019-03-31T12:45:30.741Z,5.80
2019-03-31T12:48:01.108Z,5.80
2019-03-31T12:50:26.608Z,5.90
2019-03-31T12:52:54.630Z,5.70
2019-03-31T12:55:21.633Z,5.60
2019-03-31T12:57:51.616Z,5.70
2019-03-31T13:00:17.505Z,5.80
2019-03-31T13:02:44.618Z,5.90
2019-03-31T13:05:11.846Z,5.90
2019-03-31T13:07:38.981Z,5.80
2019-03-31T13:10:08.413Z,5.70
2019-03-31T13:12:35.546Z,5.70
2019-03-31T13:15:06.326Z,5.60
2019-03-31T13:17:33.415Z,5.60
2019-03-31T13:20:00.426Z,5.70
2019-03-31T13:22:27.569Z,5.80
2019-03-31T13:24:54.586Z,5.60
2019-03-31T13:27:21.693Z,5.70
2019-03-31T13:29:54.117Z,5.90
2019-03-31T13:32:21.167Z,6.00
2019-03-31T13:34:48.245Z,6.10
2019-03-31T13:37:15.214Z,6.30
2019-03-31T13:39:42.333Z,6.90
2019-03-31T13:42:09.361Z,7.20
2019-03-31T13:44:36.506Z,7.20
2019-03-31T13:47:03.501Z,7.00
2019-03-31T13:49:30.577Z,6.80
2019-03-31T13:51:57.582Z,6.80
2019-03-31T13:54:24.733Z,6.90
2019-03-31T13:56:52.376Z,7.00
2019-03-31T13:59:19.808Z,6.90
2019-03-31T14:01:46.840Z,6.70
2019-03-31T14:04:14.996Z,6.50
2019-03-31T14:06:41.972Z,6.60
2019-03-31T14:09:09.061Z,6.30
2019-03-31T14:11:36.085Z,6.10
2019-03-31T14:14:03.426Z,6.30
2019-03-31T14:16:30.441Z,6.20
2019-03-31T14:18:58.430Z,6.70
2019-03-31T14:21:25.473Z,6.50
2019-03-31T14:23:52.500Z,6.50
2019-03-31T14:26:19.483Z,6.30
2019-03-31T14:28:46.532Z,6.40
2019-03-31T14:31:13.592Z,6.50
2019-03-31T14:33:40.693Z,6.40
2019-03-31T14:36:07.809Z,6.60
2019-03-31T14:38:40.469Z,6.60
2019-03-31T14:41:04.021Z,6.60
2019-03-31T14:43:31.196Z,6.50
2019-03-31T14:45:58.608Z,6.70
2019-03-31T14:48:25.656Z,6.70
2019-03-31T14:50:52.706Z,6.50
2019-03-31T14:53:19.732Z,6.60
2019-03-31T14:55:49.092Z,6.60
2019-03-31T14:58:16.190Z,6.60
2019-03-31T15:00:43.260Z,6.80
2019-03-31T15:03:10.289Z,6.90
2019-03-31T15:05:37.402Z,6.70
2019-03-31T15:08:04.414Z,6.70
2019-03-31T15:10:31.541Z,6.50
2019-03-31T15:12:58.575Z,6.60
2019-03-31T15:15:25.702Z,6.70
2019-03-31T15:17:52.636Z,6.60
2019-03-31T15:20:19.661Z,6.70
2019-03-31T15:22:46.692Z,6.60
2019-03-31T15:25:13.750Z,6.50
2019-03-31T15:27:40.870Z,6.60
2019-03-31T15:30:07.916Z,6.40
2019-03-31T15:32:35.105Z,6.60
2019-03-31T15:35:02.485Z,6.60
2019-03-31T15:37:29.606Z,6.50
2019-03-31T15:39:56.745Z,6.50
2019-03-31T15:42:23.889Z,6.50
2019-03-31T15:44:51.058Z,6.60
2019-03-31T15:47:26.148Z,6.60
2019-03-31T15:49:53.287Z,6.70
2019-03-31T15:52:20.505Z,6.70
2019-03-31T15:54:47.604Z,6.60
2019-03-31T15:57:14.761Z,6.50
2019-03-31T15:59:51.553Z,6.50
2019-03-31T16:02:18.574Z,6.60
2019-03-31T16:04:45.556Z,6.40
2019-03-31T16:07:12.632Z,6.30
2019-03-31T16:09:39.581Z,6.20
2019-03-31T16:12:06.618Z,6.30
2019-03-31T16:14:33.630Z,6.20
2019-03-31T16:17:00.849Z,6.20
2019-03-31T16:19:27.816Z,6.20
2019-03-31T16:21:54.893Z,6.10
2019-03-31T16:24:24.803Z,6.10
2019-03-31T16:26:53.032Z,6.20
2019-03-31T16:29:20.196Z,6.20
2019-03-31T16:31:47.281Z,6.30
2019-03-31T16:34:14.284Z,6.20
2019-03-31T16:36:41.378Z,6.20
2019-03-31T16:39:08.461Z,6.10
2019-03-31T16:41:35.513Z,6.00
2019-03-31T16:44:02.577Z,5.90
2019-03-31T16:46:29.626Z,5.90
2019-03-31T16:48:56.666Z,5.80
2019-03-31T16:51:23.761Z,5.80
2019-03-31T16:53:54.023Z,5.80
2019-03-31T16:56:21.081Z,5.70
2019-03-31T16:58:48.051Z,5.60
2019-03-31T17:01:15.070Z,5.60
2019-03-31T17:03:43.141Z,5.50
2019-03-31T17:06:10.293Z,5.50
2019-03-31T17:08:37.353Z,5.50
2019-03-31T17:11:05.571Z,5.50
2019-03-31T17:13:36.340Z,5.50
2019-03-31T17:16:03.926Z,5.40
2019-03-31T17:18:30.990Z,5.40
2019-03-31T17:20:59.213Z,5.40
2019-03-31T17:23:26.334Z,5.40
2019-03-31T17:25:54.498Z,5.40
2019-03-31T17:28:21.558Z,5.40
2019-03-31T17:30:48.631Z,5.30
2019-03-31T17:33:15.853Z,5.30
2019-03-31T17:35:42.866Z,3.70
2019-03-31T17:38:10.039Z,5.30
2019-03-31T17:40:37.081Z,5.30
2019-03-31T17:43:04.259Z,5.20
2019-03-31T17:45:31.378Z,5.20
2019-03-31T17:47:58.526Z,5.20
2019-03-31T17:50:25.757Z,5.10
2019-03-31T17:52:52.834Z,5.10
2019-03-31T17:55:19.953Z,5.10
2019-03-31T17:57:47.121Z,5.00
2019-03-31T18:00:14.353Z,4.90
2019-03-31T18:02:41.555Z,4.90
2019-03-31T18:05:09.033Z,4.90
2019-03-31T18:07:36.152Z,4.90
2019-03-31T18:10:14.338Z,4.80
2019-03-31T18:12:33.989Z,4.70
2019-03-31T18:15:01.116Z,4.70
2019-03-31T18:17:28.202Z,4.60
2019-03-31T18:19:55.278Z,4.50
2019-03-31T18:22:22.306Z,4.40
2019-03-31T18:24:50.083Z,4.40
2019-03-31T18:27:17.073Z,4.50
2019-03-31T18:29:44.132Z,4.50
2019-03-31T18:32:11.154Z,4.50
2019-03-31T18:34:38.210Z,4.40
2019-03-31T18:37:05.236Z,4.40
2019-03-31T18:39:32.373Z,4.30
2019-03-31T18:41:59.394Z,4.30
2019-03-31T18:44:26.481Z,4.20
2019-03-31T18:46:53.492Z,4.20
2019-03-31T18:49:20.553Z,4.10
2019-03-31T18:51:47.609Z,4.00
2019-03-31T18:54:16.502Z,4.00
2019-03-31T18:56:54.660Z,4.00
2019-03-31T18:59:23.529Z,4.00
2019-03-31T19:02:09.304Z,3.90
2019-03-31T19:04:56.762Z,3.90
2019-03-31T19:07:25.601Z,3.90
2019-03-31T19:09:57.431Z,3.80
2019-03-31T19:12:29.215Z,3.80
2019-03-31T19:15:14.871Z,3.70
2019-03-31T19:17:49.219Z,3.70
2019-03-31T19:20:16.806Z,3.70
2019-03-31T19:23:02.630Z,3.70
2019-03-31T19:25:34.489Z,3.70
2019-03-31T19:28:19.787Z,3.60
2019-03-31T19:31:03.782Z,3.60
2019-03-31T19:33:38.983Z,3.60
2019-03-31T19:36:13.941Z,3.60
2019-03-31T19:38:42.804Z,3.50
2019-03-31T19:41:17.385Z,3.50
2019-03-31T19:43:45.952Z,3.50
2019-03-31T19:46:23.778Z,3.50
2019-03-31T19:49:09.341Z,3.50
2019-03-31T19:51:50.181Z,3.50
2019-03-31T19:54:31.980Z,3.50
2019-03-31T19:57:12.093Z,3.50
2019-03-31T19:59:55.653Z,3.50
2019-03-31T20:02:39.237Z,3.40
2019-03-31T20:05:10.890Z,3.30
2019-03-31T20:07:56.410Z,3.40
2019-03-31T20:10:37.351Z,3.30
2019-03-31T20:13:18.209Z,3.30
2019-03-31T20:16:02.371Z,3.40
2019-03-31T20:18:38.550Z,3.30
2019-03-31T20:21:07.391Z,3.20
2019-03-31T20:23:42.022Z,3.20
2019-03-31T20:26:14.568Z,3.20
2019-03-31T20:29:00.229Z,3.20
2019-03-31T20:31:31.941Z,3.20
2019-03-31T20:34:06.602Z,3.20
2019-03-31T20:36:47.766Z,3.20
2019-03-31T20:39:34.702Z,3.20
2019-03-31T20:42:12.530Z,3.10
2019-03-31T20:44:39.550Z,3.10
2019-03-31T20:47:06.576Z,3.00
2019-03-31T20:49:33.664Z,3.00
2019-03-31T20:52:00.805Z,1.80
2019-03-31T20:54:27.858Z,2.90
2019-03-31T20:56:54.888Z,2.90
2019-03-31T20:59:21.857Z,2.90
2019-03-31T21:01:48.864Z,2.90
2019-03-31T21:04:15.986Z,2.90
2019-03-31T21:06:43.089Z,2.80
2019-03-31T21:09:10.109Z,2.80
2019-03-31T21:11:37.176Z,2.70
2019-03-31T21:14:04.189Z,2.70
2019-03-31T21:16:36.717Z,2.70
2019-03-31T21:19:03.781Z,2.60
2019-03-31T21:21:30.941Z,2.60
2019-03-31T21:23:57.905Z,2.60
2019-03-31T21:26:24.973Z,2.50
2019-03-31T21:28:51.996Z,2.50
2019-03-31T21:31:19.069Z,2.60
2019-03-31T21:33:46.077Z,2.60
2019-03-31T21:36:13.166Z,2.60
2019-03-31T21:38:41.365Z,2.60
2019-03-31T21:41:08.426Z,2.60
2019-03-31T21:43:35.509Z,2.60
2019-03-31T21:46:02.696Z,2.60
2019-03-31T21:48:29.795Z,2.60
2019-03-31T21:50:56.829Z,2.50
2019-03-31T21:53:23.794Z,2.50
2019-03-31T21:55:50.809Z,2.40
2019-03-31T21:58:17.965Z,2.40
2019-03-31T22:00:49.906Z,2.40
2019-03-31T22:03:17.145Z,2.40
2019-03-31T22:05:44.162Z,2.30
2019-03-31T22:08:11.137Z,2.30
2019-03-31T22:10:38.161Z,2.20
2019-03-31T22:13:05.220Z,2.20
2019-03-31T22:15:32.318Z,2.20
2019-03-31T22:17:59.404Z,2.20
2019-03-31T22:20:26.444Z,2.20
2019-03-31T22:22:53.482Z,2.20
2019-03-31T22:25:20.469Z,2.20
2019-03-31T22:27:47.510Z,2.20
2019-03-31T22:30:14.528Z,2.30
2019-03-31T22:32:41.627Z,2.30
2019-03-31T22:35:10.040Z,2.20
2019-03-31T22:37:37.094Z,2.10
2019-03-31T22:40:05.595Z,2.10
2019-03-31T22:42:32.668Z,2.10
2019-03-31T22:44:59.707Z,2.00
2019-03-31T22:47:26.728Z,2.00
2019-03-31T22:49:53.739Z,2.00
2019-03-31T22:52:20.835Z,1.90
2019-03-31T22:54:47.791Z,2.00
2019-03-31T22:57:14.890Z,1.90
2019-03-31T22:59:42.926Z,1.90
2019-03-31T23:02:09.967Z,1.90
2019-03-31T23:04:36.931Z,1.90
2019-03-31T23:07:03.955Z,1.90
2019-03-31T23:09:34.230Z,1.90
2019-03-31T23:12:00.745Z,1.80
2019-03-31T23:14:27.767Z,1.80
2019-03-31T23:16:54.820Z,1.70
2019-03-31T23:19:24.786Z,1.60
2019-03-31T23:21:51.906Z,1.00
2019-03-31T23:24:18.907Z,1.10
2019-03-31T23:26:46.078Z,0.90
2019-03-31T23:29:13.032Z,0.90
2019-03-31T23:31:40.078Z,0.80
2019-03-31T23:34:07.095Z,0.70
2019-03-31T23:36:34.194Z,0.70
2019-03-31T23:39:01.216Z,0.70
2019-03-31T23:41:30.095Z,0.60
2019-03-31T23:43:57.095Z,0.50
2019-03-31T23:46:24.229Z,0.50
2019-03-31T23:48:51.295Z,0.60
2019-03-31T23:51:18.463Z,0.50
2019-03-31T23:53:45.752Z,0.60
2019-03-31T23:56:13.748Z,0.60
2019-03-31T23:58:40.959Z,0.70
